createdAt,value
2023-01-19T00:01:31.356Z,3.33
2023-01-19T00:04:33.501Z,3.20
2023-01-19T00:07:35.632Z,3.17
2023-01-19T00:10:37.795Z,3.17
2023-01-19T00:13:40.636Z,2.83
2023-01-19T00:16:43.525Z,3.13
2023-01-19T00:23:04.915Z,3.30
2023-01-19T00:26:08.895Z,3.60
2023-01-19T00:29:29.392Z,3.38
2023-01-19T00:36:23.083Z,3.53
2023-01-19T00:39:31.258Z,3.00
2023-01-19T00:42:44.395Z,3.72
2023-01-19T00:45:58.456Z,2.53
2023-01-19T00:49:09.194Z,3.40
2023-01-19T00:52:33.036Z,3.47
2023-01-19T00:56:00.273Z,3.65
2023-01-19T00:59:16.994Z,3.30
2023-01-19T01:02:39.019Z,3.55
2023-01-19T01:05:44.016Z,3.33
2023-01-19T01:09:00.840Z,3.35
2023-01-19T01:12:03.365Z,3.80
2023-01-19T01:15:10.552Z,3.65
2023-01-19T01:18:13.039Z,3.75
2023-01-19T01:21:18.490Z,3.60
2023-01-19T01:24:21.671Z,4.60
2023-01-19T01:27:26.528Z,4.70
2023-01-19T01:30:29.424Z,4.63
2023-01-19T01:33:40.759Z,4.10
2023-01-19T01:36:44.668Z,4.60
2023-01-19T01:40:01.343Z,4.50
2023-01-19T01:43:04.268Z,3.80
2023-01-19T01:46:07.033Z,3.90
2023-01-19T01:49:16.106Z,4.82
2023-01-19T01:52:18.740Z,4.17
2023-01-19T01:55:22.842Z,4.38
2023-01-19T02:02:00.437Z,4.13
2023-01-19T02:05:07.516Z,4.47
2023-01-19T02:08:38.493Z,4.47
2023-01-19T02:11:59.760Z,4.53
2023-01-19T02:15:01.975Z,4.33
2023-01-19T02:18:04.242Z,3.95
2023-01-19T02:21:26.616Z,4.05
2023-01-19T02:24:29.311Z,3.60
2023-01-19T02:27:32.433Z,3.47
2023-01-19T02:30:35.950Z,3.78
2023-01-19T02:33:38.361Z,2.75
2023-01-19T02:36:49.150Z,2.83
2023-01-19T02:40:01.956Z,3.22
2023-01-19T02:43:05.186Z,2.67
2023-01-19T02:46:07.327Z,2.43
2023-01-19T02:49:09.549Z,2.90
2023-01-19T02:52:17.778Z,2.50
2023-01-19T02:55:22.368Z,2.50
2023-01-19T02:58:31.709Z,2.50
2023-01-19T03:02:12.906Z,3.00
2023-01-19T03:05:24.869Z,2.90
2023-01-19T03:08:52.437Z,2.90
2023-01-19T03:12:10.068Z,2.60
2023-01-19T03:15:22.727Z,2.38
2023-01-19T03:18:26.788Z,2.00
2023-01-19T03:21:29.850Z,2.25
2023-01-19T03:24:36.878Z,2.35
2023-01-19T03:27:40.946Z,2.50
2023-01-19T03:30:47.844Z,2.20
2023-01-19T03:33:51.808Z,2.35
2023-01-19T03:36:55.646Z,2.58
2023-01-19T03:39:57.872Z,2.63
2023-01-19T03:43:01.567Z,2.33
2023-01-19T03:46:05.203Z,2.35
2023-01-19T03:49:08.396Z,2.40
2023-01-19T03:52:10.687Z,1.75
2023-01-19T03:55:13.671Z,2.17
2023-01-19T03:58:15.846Z,1.87
2023-01-19T04:01:22.633Z,2.00
2023-01-19T04:04:25.516Z,2.60
2023-01-19T04:07:28.496Z,1.98
2023-01-19T04:10:30.610Z,1.60
2023-01-19T04:13:32.811Z,2.13
2023-01-19T04:16:35.217Z,1.88
2023-01-19T04:19:37.372Z,2.20
2023-01-19T04:22:39.596Z,2.60
2023-01-19T04:25:41.759Z,2.80
2023-01-19T04:28:43.964Z,2.40
2023-01-19T04:31:46.366Z,1.90
2023-01-19T04:34:48.525Z,1.90
2023-01-19T04:37:50.758Z,1.70
2023-01-19T04:40:53.434Z,1.70
2023-01-19T04:43:55.552Z,1.80
2023-01-19T04:46:57.776Z,1.70
2023-01-19T04:49:59.971Z,1.40
2023-01-19T04:53:02.560Z,1.48
2023-01-19T04:56:05.221Z,1.73
2023-01-19T04:59:07.372Z,1.40
2023-01-19T05:02:09.682Z,1.33
2023-01-19T05:05:11.975Z,1.40
2023-01-19T05:08:14.166Z,1.20
2023-01-19T05:11:16.318Z,1.40
2023-01-19T05:14:18.874Z,1.65
2023-01-19T05:17:21.061Z,1.58
2023-01-19T05:20:23.911Z,1.20
2023-01-19T05:23:26.045Z,1.40
2023-01-19T05:26:28.168Z,1.25
2023-01-19T05:29:30.286Z,1.30
2023-01-19T05:32:32.649Z,1.00
2023-01-19T05:35:36.646Z,1.25
2023-01-19T05:38:38.903Z,1.50
2023-01-19T05:41:42.078Z,1.17
2023-01-19T05:44:44.406Z,1.20
2023-01-19T05:47:46.771Z,1.38
2023-01-19T05:50:49.625Z,1.03
2023-01-19T05:53:51.913Z,1.48
2023-01-19T05:56:54.089Z,1.42
2023-01-19T05:59:56.284Z,1.10
2023-01-19T06:03:00.861Z,0.90
2023-01-19T06:06:03.798Z,1.30
2023-01-19T06:09:07.833Z,1.38
2023-01-19T06:12:10.049Z,1.23
2023-01-19T06:15:14.435Z,1.23
2023-01-19T06:18:16.567Z,1.10
2023-01-19T06:21:18.686Z,0.87
2023-01-19T06:24:20.908Z,0.90
2023-01-19T06:27:23.149Z,0.90
2023-01-19T06:30:25.370Z,1.50
2023-01-19T06:33:28.123Z,1.13
2023-01-19T06:36:30.325Z,1.40
2023-01-19T06:39:33.095Z,1.10
2023-01-19T06:42:37.847Z,1.10
2023-01-19T06:45:40.050Z,1.08
2023-01-19T06:48:42.207Z,1.10
2023-01-19T06:51:44.574Z,0.80
2023-01-19T06:54:46.999Z,1.50
2023-01-19T06:57:49.168Z,1.20
2023-01-19T07:00:51.878Z,1.50
2023-01-19T07:03:58.615Z,1.13
2023-01-19T07:07:02.337Z,1.40
2023-01-19T07:10:05.093Z,1.60
2023-01-19T07:13:13.899Z,1.50
2023-01-19T07:16:34.383Z,1.70
2023-01-19T07:19:36.868Z,2.00
2023-01-19T07:22:39.341Z,1.73
2023-01-19T07:25:46.246Z,1.92
2023-01-19T07:28:48.950Z,2.28
2023-01-19T07:31:54.357Z,1.90
2023-01-19T07:34:56.627Z,2.10
2023-01-19T07:37:59.068Z,2.25
2023-01-19T07:41:03.599Z,2.28
2023-01-19T07:44:05.732Z,2.13
2023-01-19T07:47:11.212Z,2.20
2023-01-19T07:50:13.971Z,2.22
2023-01-19T07:53:17.011Z,2.00
2023-01-19T07:56:22.836Z,2.17
2023-01-19T07:59:25.090Z,1.80
2023-01-19T08:02:27.970Z,2.43
2023-01-19T08:05:33.514Z,1.95
2023-01-19T08:08:37.543Z,1.95
2023-01-19T08:11:42.239Z,2.40
2023-01-19T08:14:44.451Z,1.90
2023-01-19T08:17:46.684Z,2.35
2023-01-19T08:20:50.937Z,2.38
2023-01-19T08:23:55.944Z,1.70
2023-01-19T08:26:59.890Z,2.40
2023-01-19T08:30:02.346Z,2.13
2023-01-19T08:33:08.026Z,2.20
2023-01-19T08:36:10.304Z,2.20
2023-01-19T08:39:13.215Z,2.95
2023-01-19T08:42:19.599Z,2.78
2023-01-19T08:45:21.767Z,2.92
2023-01-19T08:48:24.165Z,2.50
2023-01-19T08:51:26.329Z,2.10
2023-01-19T08:54:28.704Z,2.23
2023-01-19T08:57:30.966Z,2.60
2023-01-19T09:00:34.367Z,2.50
2023-01-19T09:03:43.751Z,2.87
2023-01-19T09:06:46.196Z,2.40
2023-01-19T09:09:48.333Z,3.15
2023-01-19T09:12:54.136Z,3.58
2023-01-19T09:15:57.762Z,3.17
2023-01-19T09:19:00.434Z,3.40
2023-01-19T09:22:04.922Z,3.17
2023-01-19T09:25:09.688Z,2.67
2023-01-19T09:28:14.618Z,3.00
2023-01-19T09:31:20.084Z,3.08
2023-01-19T09:34:23.153Z,3.30
2023-01-19T09:37:25.288Z,3.30
2023-01-19T09:40:28.250Z,3.28
2023-01-19T09:43:36.795Z,3.00
2023-01-19T09:46:45.306Z,3.40
2023-01-19T09:49:51.503Z,3.33
2023-01-19T09:53:31.660Z,3.80
2023-01-19T09:56:34.893Z,3.53
2023-01-19T09:59:38.726Z,3.47
2023-01-19T10:02:58.706Z,4.10
2023-01-19T10:06:06.172Z,4.37
2023-01-19T10:09:25.483Z,3.97
2023-01-19T10:12:42.947Z,3.72
2023-01-19T10:16:14.968Z,4.60
2023-01-19T10:19:21.808Z,5.00
2023-01-19T10:22:26.240Z,4.68
2023-01-19T10:25:28.760Z,5.32
2023-01-19T10:28:31.065Z,5.23
2023-01-19T10:31:36.099Z,4.95
2023-01-19T10:34:39.800Z,5.90
2023-01-19T10:37:44.801Z,5.80
2023-01-19T10:41:16.329Z,8.30
2023-01-19T10:44:26.745Z,6.38
2023-01-19T10:47:43.116Z,7.50
2023-01-19T10:50:45.865Z,7.65
2023-01-19T10:54:09.010Z,7.82
2023-01-19T10:57:17.594Z,6.40
2023-01-19T11:00:41.280Z,6.83
2023-01-19T11:03:44.571Z,7.30
2023-01-19T11:06:47.936Z,7.60
2023-01-19T11:10:12.554Z,7.20
2023-01-19T11:13:17.933Z,7.32
2023-01-19T11:16:23.166Z,6.97
2023-01-19T11:19:28.400Z,6.80
2023-01-19T11:22:33.121Z,6.68
2023-01-19T11:25:37.421Z,6.22
2023-01-19T11:28:45.057Z,6.75
2023-01-19T11:31:48.205Z,5.20
2023-01-19T11:34:50.669Z,5.50
2023-01-19T11:38:23.115Z,5.45
2023-01-19T11:41:33.633Z,5.93
2023-01-19T11:44:48.077Z,5.72
2023-01-19T11:47:52.374Z,5.53
2023-01-19T11:50:54.980Z,5.63
2023-01-19T11:54:01.696Z,5.45
2023-01-19T11:57:22.374Z,6.43
2023-01-19T12:01:21.179Z,5.90
2023-01-19T12:04:38.467Z,5.80
2023-01-19T12:07:45.204Z,6.68
2023-01-19T12:10:48.245Z,6.40
2023-01-19T12:13:58.013Z,7.07
2023-01-19T12:17:03.296Z,7.25
2023-01-19T12:20:34.693Z,7.85
2023-01-19T12:24:08.133Z,7.40
2023-01-19T12:27:19.323Z,6.38
2023-01-19T12:30:29.470Z,7.00
2023-01-19T12:34:06.713Z,8.43
2023-01-19T12:37:36.351Z,7.63
2023-01-19T12:40:42.260Z,8.18
2023-01-19T12:43:57.288Z,8.00
2023-01-19T12:47:24.085Z,7.40
2023-01-19T12:54:32.699Z,6.85
2023-01-19T12:57:41.543Z,8.68
2023-01-19T13:00:51.336Z,8.35
2023-01-19T13:04:09.122Z,8.77
2023-01-19T13:07:13.613Z,7.82
2023-01-19T13:10:53.480Z,7.90
2023-01-19T13:13:58.679Z,8.15
2023-01-19T13:17:02.175Z,7.68
2023-01-19T13:20:23.447Z,7.87
2023-01-19T13:23:49.965Z,7.45
2023-01-19T13:26:52.108Z,7.97
2023-01-19T13:29:54.244Z,7.95
2023-01-19T13:33:03.317Z,7.22
2023-01-19T13:36:16.321Z,7.75
2023-01-19T13:39:50.210Z,6.72
2023-01-19T13:42:53.534Z,6.40
2023-01-19T13:46:40.994Z,7.30
2023-01-19T13:49:46.941Z,7.25
2023-01-19T13:52:51.302Z,6.47
2023-01-19T13:56:21.775Z,7.65
2023-01-19T13:59:24.022Z,7.30
2023-01-19T14:02:26.387Z,6.40
2023-01-19T14:05:28.766Z,7.35
2023-01-19T14:08:32.862Z,6.93
2023-01-19T14:11:35.287Z,7.05
2023-01-19T14:14:37.799Z,7.30
2023-01-19T14:17:41.459Z,8.02
2023-01-19T14:21:08.877Z,8.13
2023-01-19T14:24:18.914Z,8.40
2023-01-19T14:27:24.300Z,8.25
2023-01-19T14:30:26.891Z,7.60
2023-01-19T14:33:45.379Z,9.10
2023-01-19T14:36:50.857Z,9.10
2023-01-19T14:39:55.619Z,8.73
2023-01-19T14:43:05.681Z,9.13
2023-01-19T14:46:07.912Z,9.70
2023-01-19T14:49:18.670Z,9.15
2023-01-19T14:52:25.276Z,9.95
2023-01-19T14:55:43.286Z,8.33
2023-01-19T14:58:45.454Z,8.93
2023-01-19T15:01:47.772Z,9.23
2023-01-19T15:04:53.868Z,8.90
2023-01-19T15:07:56.012Z,9.02
2023-01-19T15:10:58.739Z,5.38
2023-01-19T15:14:01.507Z,9.02
2023-01-19T15:17:03.680Z,9.13
2023-01-19T15:20:14.198Z,9.63
2023-01-19T15:23:16.359Z,8.88
2023-01-19T15:26:20.846Z,8.77
2023-01-19T15:29:25.172Z,8.60
2023-01-19T15:32:27.320Z,9.65
2023-01-19T15:35:29.527Z,8.95
2023-01-19T15:38:31.655Z,9.10
2023-01-19T15:41:33.916Z,9.63
2023-01-19T15:44:36.105Z,10.10
2023-01-19T15:47:38.582Z,10.23
2023-01-19T15:50:43.012Z,10.02
2023-01-19T15:53:45.611Z,9.75
2023-01-19T15:56:47.920Z,10.67
2023-01-19T15:59:51.336Z,8.02
2023-01-19T16:02:53.530Z,10.48
2023-01-19T16:05:55.782Z,10.23
2023-01-19T16:09:01.440Z,10.95
2023-01-19T16:12:04.729Z,11.40
2023-01-19T16:15:07.992Z,11.10
2023-01-19T16:18:10.360Z,10.13
2023-01-19T16:21:12.616Z,11.50
2023-01-19T16:24:14.745Z,11.15
2023-01-19T16:27:16.917Z,11.33
2023-01-19T16:30:19.415Z,11.90
2023-01-19T16:33:21.763Z,11.82
2023-01-19T16:36:29.377Z,10.68
2023-01-19T16:39:31.503Z,11.98
2023-01-19T16:42:33.715Z,11.40
2023-01-19T16:45:44.296Z,11.63
2023-01-19T16:48:46.468Z,12.60
2023-01-19T16:51:49.860Z,10.00
2023-01-19T16:54:54.702Z,11.20
2023-01-19T16:57:56.883Z,10.80
2023-01-19T17:00:59.455Z,10.15
2023-01-19T17:04:01.821Z,9.25
2023-01-19T17:07:03.930Z,8.77
2023-01-19T17:10:06.948Z,7.05
2023-01-19T17:13:09.101Z,10.05
2023-01-19T17:16:11.325Z,8.60
2023-01-19T17:19:16.621Z,9.13
2023-01-19T17:22:19.067Z,9.30
2023-01-19T17:25:21.236Z,9.52
2023-01-19T17:28:23.899Z,8.53
2023-01-19T17:31:26.420Z,9.20
2023-01-19T17:34:28.688Z,10.63
2023-01-19T17:37:30.855Z,10.07
2023-01-19T17:40:33.028Z,9.13
2023-01-19T17:43:35.233Z,10.10
2023-01-19T17:46:38.144Z,9.27
2023-01-19T17:49:40.345Z,8.73
2023-01-19T17:52:42.601Z,9.63
2023-01-19T17:55:44.919Z,9.20
2023-01-19T17:58:47.300Z,8.70
2023-01-19T18:01:49.591Z,8.30
2023-01-19T18:04:54.743Z,9.05
2023-01-19T18:07:56.986Z,8.20
2023-01-19T18:11:00.273Z,8.98
2023-01-19T18:14:02.816Z,8.50
2023-01-19T18:17:05.129Z,8.05
2023-01-19T18:20:07.963Z,8.43
2023-01-19T18:23:13.504Z,9.45
2023-01-19T18:26:18.658Z,8.55
2023-01-19T18:29:20.806Z,8.87
2023-01-19T18:32:23.125Z,9.50
2023-01-19T18:35:25.617Z,9.55
2023-01-19T18:38:27.927Z,9.43
2023-01-19T18:41:30.666Z,8.98
2023-01-19T18:44:32.836Z,8.48
2023-01-19T18:47:35.102Z,7.70
2023-01-19T18:50:37.863Z,8.37
2023-01-19T18:53:40.588Z,8.65
2023-01-19T18:56:42.770Z,7.68
2023-01-19T18:59:46.651Z,8.97
2023-01-19T19:02:48.773Z,6.70
2023-01-19T19:05:50.931Z,8.00
2023-01-19T19:08:54.836Z,8.52
2023-01-19T19:11:57.127Z,8.27
2023-01-19T19:14:59.238Z,8.15
2023-01-19T19:18:01.378Z,8.23
2023-01-19T19:21:08.615Z,7.57
2023-01-19T19:24:13.610Z,7.90
2023-01-19T19:27:17.025Z,8.80
2023-01-19T19:30:20.714Z,7.83
2023-01-19T19:33:22.888Z,8.30
2023-01-19T19:36:26.528Z,8.77
2023-01-19T19:39:29.103Z,9.98
2023-01-19T19:42:31.389Z,9.00
2023-01-19T19:45:33.566Z,8.65
2023-01-19T19:48:38.876Z,10.13
2023-01-19T19:51:41.941Z,9.50
2023-01-19T19:54:45.125Z,10.30
2023-01-19T19:57:47.594Z,9.18
2023-01-19T20:00:50.088Z,9.47
2023-01-19T20:03:52.414Z,8.57
2023-01-19T20:06:54.553Z,9.15
2023-01-19T20:09:56.740Z,8.95
2023-01-19T20:12:58.921Z,10.05
2023-01-19T20:16:03.153Z,7.95
2023-01-19T20:19:05.541Z,8.98
2023-01-19T20:22:07.697Z,9.50
2023-01-19T20:25:09.881Z,8.55
2023-01-19T20:28:12.018Z,8.73
2023-01-19T20:31:16.740Z,9.43
2023-01-19T20:34:21.462Z,8.13
2023-01-19T20:37:23.656Z,8.80
2023-01-19T20:40:25.873Z,8.82
2023-01-19T20:43:28.930Z,8.50
2023-01-19T20:46:31.109Z,8.95
2023-01-19T20:49:33.233Z,8.00
2023-01-19T20:52:35.894Z,8.53
2023-01-19T20:55:38.092Z,8.18
2023-01-19T20:58:40.948Z,8.90
2023-01-19T21:01:43.873Z,8.67
2023-01-19T21:04:46.164Z,9.52
2023-01-19T21:07:48.905Z,9.60
2023-01-19T21:10:57.196Z,9.20
2023-01-19T21:13:59.397Z,9.65
2023-01-19T21:17:01.546Z,9.07
2023-01-19T21:20:04.041Z,9.18
2023-01-19T21:23:06.211Z,8.97
2023-01-19T21:26:08.575Z,8.88
2023-01-19T21:29:13.362Z,9.38
2023-01-19T21:32:15.555Z,9.03
2023-01-19T21:35:17.751Z,9.05
2023-01-19T21:38:20.497Z,8.80
2023-01-19T21:41:22.702Z,8.25
2023-01-19T21:44:24.915Z,8.93
2023-01-19T21:47:27.050Z,8.80
2023-01-19T21:50:29.141Z,9.07
2023-01-19T21:53:31.406Z,8.73
2023-01-19T21:56:34.352Z,9.40
2023-01-19T21:59:36.489Z,8.35
2023-01-19T22:02:39.338Z,8.20
2023-01-19T22:05:42.101Z,9.13
2023-01-19T22:08:46.468Z,8.18
2023-01-19T22:11:48.672Z,8.43
2023-01-19T22:14:50.878Z,9.07
2023-01-19T22:17:53.073Z,9.20
2023-01-19T22:20:55.361Z,8.95
2023-01-19T22:24:01.900Z,8.37
2023-01-19T22:27:04.071Z,9.80
2023-01-19T22:30:06.929Z,8.98
2023-01-19T22:33:09.052Z,8.90
2023-01-19T22:36:12.989Z,8.70
2023-01-19T22:39:15.177Z,9.93
2023-01-19T22:42:17.306Z,9.05
2023-01-19T22:45:19.842Z,9.43
2023-01-19T22:48:22.287Z,9.48
2023-01-19T22:51:25.682Z,9.23
2023-01-19T22:54:29.848Z,8.50
2023-01-19T22:57:35.732Z,9.32
2023-01-19T23:00:37.977Z,9.40
2023-01-19T23:03:40.548Z,9.23
2023-01-19T23:06:43.046Z,8.65
2023-01-19T23:09:45.492Z,8.38
2023-01-19T23:12:48.586Z,8.23
2023-01-19T23:15:50.753Z,7.47
2023-01-19T23:18:54.808Z,7.65
2023-01-19T23:21:57.014Z,7.85
2023-01-19T23:24:59.205Z,7.03
2023-01-19T23:28:01.315Z,7.47
2023-01-19T23:31:25.176Z,7.60
2023-01-19T23:34:27.434Z,7.37
2023-01-19T23:37:29.623Z,7.28
2023-01-19T23:40:31.920Z,7.05
2023-01-19T23:43:34.660Z,7.82
2023-01-19T23:46:37.053Z,7.05
2023-01-19T23:49:40.122Z,7.32
2023-01-19T23:52:42.230Z,7.82
2023-01-19T23:55:44.333Z,7.37
2023-01-19T23:58:48.484Z,7.53
